createdAt,value
2023-03-31T00:00:23.863Z,10.70
2023-03-31T00:03:26.957Z,10.58
2023-03-31T00:06:30.009Z,10.48
2023-03-31T00:09:35.706Z,10.58
2023-03-31T00:12:38.214Z,10.51
2023-03-31T00:15:40.636Z,10.44
2023-03-31T00:18:47.588Z,10.57
2023-03-31T00:21:51.615Z,10.52
2023-03-31T00:24:53.890Z,10.38
2023-03-31T00:27:56.334Z,10.30
2023-03-31T00:31:02.342Z,10.48
2023-03-31T00:34:05.116Z,10.38
2023-03-31T00:37:09.932Z,10.25
2023-03-31T00:40:13.322Z,10.27
2023-03-31T00:43:29.396Z,10.16
2023-03-31T00:46:34.468Z,10.22
2023-03-31T00:49:45.642Z,10.00
2023-03-31T00:52:51.475Z,9.96
2023-03-31T00:55:55.853Z,9.93
2023-03-31T00:59:02.052Z,9.98
2023-03-31T01:02:05.028Z,9.89
2023-03-31T01:05:09.012Z,9.81
2023-03-31T01:08:12.226Z,9.80
2023-03-31T01:11:18.880Z,9.69
2023-03-31T01:14:21.291Z,9.54
2023-03-31T01:17:25.273Z,9.56
2023-03-31T01:20:31.415Z,9.46
2023-03-31T01:23:37.590Z,9.46
2023-03-31T01:26:55.610Z,9.42
2023-03-31T01:30:36.953Z,9.40
2023-03-31T01:33:54.095Z,9.39
2023-03-31T01:37:00.102Z,9.47
2023-03-31T01:40:11.516Z,9.52
2023-03-31T01:43:23.481Z,9.56
2023-03-31T01:46:31.820Z,9.59
2023-03-31T01:49:37.282Z,9.65
2023-03-31T01:52:47.087Z,9.66
2023-03-31T01:56:04.396Z,9.62
2023-03-31T01:59:09.781Z,9.65
2023-03-31T02:02:12.842Z,9.74
2023-03-31T02:05:19.072Z,9.69
2023-03-31T02:08:36.278Z,9.71
2023-03-31T02:11:40.367Z,9.65
2023-03-31T02:14:45.204Z,9.62
2023-03-31T02:17:51.461Z,9.62
2023-03-31T02:20:57.448Z,9.60
2023-03-31T02:24:02.892Z,9.58
2023-03-31T02:27:24.204Z,9.61
2023-03-31T02:30:30.753Z,9.56
2023-03-31T02:33:33.729Z,9.42
2023-03-31T02:36:36.392Z,9.38
2023-03-31T02:39:41.445Z,9.55
2023-03-31T02:42:47.552Z,9.52
2023-03-31T02:45:50.890Z,9.39
2023-03-31T02:48:55.552Z,9.48
2023-03-31T02:52:16.985Z,9.47
2023-03-31T02:55:22.572Z,9.40
2023-03-31T02:58:34.546Z,9.34
2023-03-31T03:02:00.742Z,9.32
2023-03-31T03:05:26.477Z,9.27
2023-03-31T03:09:02.940Z,9.26
2023-03-31T03:12:05.846Z,9.19
2023-03-31T03:15:08.131Z,9.13
2023-03-31T03:18:12.270Z,9.17
2023-03-31T03:21:14.583Z,9.17
2023-03-31T03:24:17.968Z,9.04
2023-03-31T03:27:22.807Z,9.11
2023-03-31T03:30:25.866Z,9.05
2023-03-31T03:33:28.038Z,9.00
2023-03-31T03:36:30.685Z,8.89
2023-03-31T03:39:32.760Z,8.86
2023-03-31T03:42:35.589Z,8.68
2023-03-31T03:45:37.727Z,8.56
2023-03-31T03:48:40.408Z,8.41
2023-03-31T03:51:42.350Z,8.43
2023-03-31T03:54:44.808Z,8.27
2023-03-31T03:57:46.896Z,8.21
2023-03-31T04:00:49.302Z,8.22
2023-03-31T04:03:51.996Z,8.18
2023-03-31T04:06:54.392Z,8.14
2023-03-31T04:09:56.735Z,8.11
2023-03-31T04:12:58.909Z,8.18
2023-03-31T04:16:01.370Z,8.19
2023-03-31T04:19:05.071Z,8.13
2023-03-31T04:22:11.652Z,8.16
2023-03-31T04:25:17.890Z,7.87
2023-03-31T04:28:20.207Z,7.81
2023-03-31T04:31:25.700Z,7.76
2023-03-31T04:34:35.047Z,7.76
2023-03-31T04:37:38.919Z,7.77
2023-03-31T04:40:41.597Z,7.82
2023-03-31T04:43:46.611Z,8.03
2023-03-31T04:46:49.181Z,7.95
2023-03-31T04:49:51.273Z,8.07
2023-03-31T04:52:53.758Z,8.06
2023-03-31T04:55:56.262Z,8.28
2023-03-31T04:58:59.022Z,8.40
2023-03-31T05:02:01.365Z,8.49
2023-03-31T05:05:05.184Z,8.53
2023-03-31T05:08:07.673Z,8.56
2023-03-31T05:11:11.046Z,8.57
2023-03-31T05:14:13.645Z,8.69
2023-03-31T05:17:17.938Z,8.86
2023-03-31T05:20:20.388Z,9.10
2023-03-31T05:23:22.883Z,10.05
2023-03-31T05:26:25.582Z,12.01
2023-03-31T05:29:28.296Z,14.11
2023-03-31T05:32:30.399Z,15.83
2023-03-31T05:35:33.771Z,16.93
2023-03-31T05:38:35.965Z,17.86
2023-03-31T05:41:38.902Z,18.40
2023-03-31T05:44:41.092Z,19.62
2023-03-31T05:47:43.622Z,19.90
2023-03-31T05:50:46.093Z,21.36
2023-03-31T05:53:48.510Z,21.98
2023-03-31T05:56:50.579Z,22.77
2023-03-31T05:59:53.092Z,22.88
2023-03-31T06:02:55.350Z,23.27
2023-03-31T06:05:58.664Z,22.99
2023-03-31T06:09:01.072Z,22.85
2023-03-31T06:12:03.461Z,21.89
2023-03-31T06:15:05.715Z,21.07
2023-03-31T06:18:10.690Z,20.94
2023-03-31T06:21:13.636Z,20.78
2023-03-31T06:24:16.090Z,22.00
2023-03-31T06:27:18.236Z,22.32
2023-03-31T06:30:21.634Z,22.98
2023-03-31T06:33:23.624Z,23.34
2023-03-31T06:36:25.961Z,23.14
2023-03-31T06:39:28.673Z,22.96
2023-03-31T06:42:31.317Z,23.04
2023-03-31T06:45:33.429Z,23.24
2023-03-31T06:48:36.988Z,22.90
2023-03-31T06:51:39.075Z,23.95
2023-03-31T06:54:42.193Z,23.99
2023-03-31T06:57:44.716Z,24.20
2023-03-31T07:00:47.657Z,24.84
2023-03-31T07:03:49.707Z,25.25
2023-03-31T07:06:52.052Z,25.71
2023-03-31T07:09:56.328Z,24.83
2023-03-31T07:12:59.018Z,25.51
2023-03-31T07:16:01.225Z,25.18
2023-03-31T07:19:04.369Z,25.21
2023-03-31T07:22:06.587Z,25.64
2023-03-31T07:25:09.989Z,25.66
2023-03-31T07:28:12.217Z,24.56
2023-03-31T07:31:14.674Z,23.97
2023-03-31T07:34:16.804Z,23.72
2023-03-31T07:37:19.318Z,23.09
2023-03-31T07:40:23.822Z,22.33
2023-03-31T07:43:28.530Z,21.74
2023-03-31T07:46:30.832Z,21.04
2023-03-31T07:49:34.101Z,19.73
2023-03-31T07:52:36.058Z,19.79
2023-03-31T07:55:38.312Z,19.01
2023-03-31T07:58:40.463Z,19.44
2023-03-31T08:01:43.144Z,19.32
2023-03-31T08:04:46.940Z,18.96
2023-03-31T08:07:49.781Z,18.73
2023-03-31T08:10:56.859Z,19.08
2023-03-31T08:14:00.607Z,19.19
2023-03-31T08:17:04.181Z,19.02
2023-03-31T08:20:10.226Z,19.82
2023-03-31T08:23:18.181Z,19.10
2023-03-31T08:26:21.851Z,19.44
2023-03-31T08:29:24.212Z,18.69
2023-03-31T08:32:26.191Z,18.83
2023-03-31T08:35:28.893Z,18.75
2023-03-31T08:38:32.321Z,19.01
2023-03-31T08:41:54.158Z,19.20
2023-03-31T08:44:57.386Z,18.45
2023-03-31T08:48:07.084Z,18.36
2023-03-31T08:51:15.086Z,18.34
2023-03-31T08:54:26.487Z,17.70
2023-03-31T08:57:32.271Z,17.75
2023-03-31T09:00:41.695Z,17.48
2023-03-31T09:03:53.639Z,17.10
2023-03-31T09:07:15.444Z,16.99
2023-03-31T09:10:25.006Z,16.80
2023-03-31T09:13:39.980Z,17.03
2023-03-31T09:16:46.433Z,17.45
2023-03-31T09:19:53.119Z,17.52
2023-03-31T09:23:06.797Z,17.74
2023-03-31T09:26:18.854Z,17.80
2023-03-31T09:29:24.426Z,17.84
2023-03-31T09:32:29.373Z,18.36
2023-03-31T09:35:33.751Z,18.55
2023-03-31T09:38:36.592Z,18.70
2023-03-31T09:41:39.565Z,19.18
2023-03-31T09:44:46.632Z,19.10
2023-03-31T09:47:54.049Z,18.79
2023-03-31T09:51:00.663Z,18.99
2023-03-31T09:54:07.722Z,18.85
2023-03-31T09:57:14.916Z,18.59
2023-03-31T10:00:24.343Z,18.55
2023-03-31T10:03:30.178Z,18.62
2023-03-31T10:06:32.392Z,18.38
2023-03-31T10:09:38.380Z,18.07
2023-03-31T10:12:40.751Z,18.08
2023-03-31T10:15:43.465Z,18.35
2023-03-31T10:18:45.470Z,18.45
2023-03-31T10:21:48.683Z,18.69
2023-03-31T10:24:51.495Z,18.70
2023-03-31T10:27:55.309Z,18.54
2023-03-31T10:31:01.420Z,18.36
2023-03-31T10:34:09.745Z,18.27
2023-03-31T10:37:15.012Z,18.42
2023-03-31T10:40:27.835Z,18.31
2023-03-31T10:43:38.967Z,18.23
2023-03-31T10:46:52.849Z,18.16
2023-03-31T10:49:58.142Z,18.26
2023-03-31T10:53:02.806Z,18.15
2023-03-31T10:56:10.993Z,18.10
2023-03-31T10:59:31.943Z,18.18
2023-03-31T11:02:42.921Z,18.18
2023-03-31T11:05:53.143Z,18.16
2023-03-31T11:09:13.626Z,18.24
2023-03-31T11:12:24.766Z,18.42
2023-03-31T11:15:45.695Z,18.75
2023-03-31T11:18:54.684Z,18.94
2023-03-31T11:22:15.468Z,19.11
2023-03-31T11:25:17.811Z,19.55
2023-03-31T11:28:20.652Z,19.87
2023-03-31T11:31:50.078Z,19.88
2023-03-31T11:35:14.270Z,19.81
2023-03-31T11:38:24.024Z,19.98
2023-03-31T11:41:27.642Z,19.91
2023-03-31T11:44:37.694Z,19.86
2023-03-31T11:47:47.109Z,19.76
2023-03-31T11:50:50.086Z,19.88
2023-03-31T11:53:54.077Z,19.70
2023-03-31T11:56:56.947Z,19.78
2023-03-31T12:00:05.023Z,19.80
2023-03-31T12:03:16.500Z,20.19
2023-03-31T12:06:21.050Z,20.18
2023-03-31T12:09:27.280Z,19.84
2023-03-31T12:12:30.947Z,19.71
2023-03-31T12:15:46.118Z,19.84
2023-03-31T12:19:05.948Z,20.07
2023-03-31T12:22:14.495Z,20.01
2023-03-31T12:25:22.914Z,20.15
2023-03-31T12:28:27.560Z,20.49
2023-03-31T12:31:33.026Z,20.90
2023-03-31T12:34:38.242Z,21.00
2023-03-31T12:37:40.500Z,21.01
2023-03-31T12:41:01.278Z,21.07
2023-03-31T12:44:12.998Z,20.79
2023-03-31T12:47:15.094Z,20.52
2023-03-31T12:50:36.511Z,20.16
2023-03-31T12:53:44.323Z,19.95
2023-03-31T12:57:02.036Z,20.10
2023-03-31T13:00:21.014Z,20.19
2023-03-31T13:03:37.067Z,20.05
2023-03-31T13:06:39.079Z,19.60
2023-03-31T13:09:42.907Z,19.38
2023-03-31T13:13:04.118Z,19.44
2023-03-31T13:16:06.427Z,19.44
2023-03-31T13:19:10.541Z,19.11
2023-03-31T13:22:28.096Z,19.39
2023-03-31T13:25:30.375Z,19.63
2023-03-31T13:28:34.628Z,19.66
2023-03-31T13:31:55.370Z,19.66
2023-03-31T13:34:59.762Z,19.62
2023-03-31T13:38:01.775Z,19.89
2023-03-31T13:41:16.582Z,19.74
2023-03-31T13:44:38.468Z,19.61
2023-03-31T13:48:00.236Z,19.39
2023-03-31T13:51:20.784Z,19.31
2023-03-31T13:54:41.883Z,19.16
2023-03-31T13:57:53.052Z,19.08
2023-03-31T14:00:58.622Z,18.93
2023-03-31T14:04:19.491Z,18.64
2023-03-31T14:07:40.394Z,18.58
2023-03-31T14:10:43.375Z,18.88
2023-03-31T14:13:58.326Z,18.84
2023-03-31T14:17:01.987Z,18.81
2023-03-31T14:20:10.728Z,18.69
2023-03-31T14:23:31.911Z,18.83
2023-03-31T14:26:49.110Z,18.79
2023-03-31T14:29:57.983Z,19.01
2023-03-31T14:33:18.644Z,19.10
2023-03-31T14:36:21.426Z,19.06
2023-03-31T14:39:26.361Z,18.83
2023-03-31T14:42:43.016Z,18.54
2023-03-31T14:45:45.037Z,18.27
2023-03-31T14:48:48.478Z,18.23
2023-03-31T14:51:52.987Z,18.08
2023-03-31T14:54:55.590Z,17.96
2023-03-31T14:57:59.735Z,17.99
2023-03-31T15:01:07.073Z,17.97
2023-03-31T15:04:11.764Z,17.79
2023-03-31T15:07:16.209Z,17.58
2023-03-31T15:10:20.418Z,17.52
2023-03-31T15:13:29.627Z,17.41
2023-03-31T15:16:35.166Z,17.40
2023-03-31T15:19:37.616Z,17.47
2023-03-31T15:22:39.730Z,17.55
2023-03-31T15:25:43.130Z,17.46
2023-03-31T15:28:57.165Z,17.34
2023-03-31T15:31:59.823Z,17.17
2023-03-31T15:35:18.852Z,16.86
2023-03-31T15:38:27.512Z,16.73
2023-03-31T15:41:30.848Z,16.66
2023-03-31T15:44:38.647Z,16.61
2023-03-31T15:47:48.610Z,16.55
2023-03-31T15:50:51.857Z,16.45
2023-03-31T15:53:54.302Z,16.37
2023-03-31T15:56:59.315Z,16.34
2023-03-31T16:00:02.098Z,16.20
2023-03-31T16:03:13.449Z,16.12
2023-03-31T16:06:22.389Z,16.09
2023-03-31T16:09:27.967Z,16.02
2023-03-31T16:12:49.017Z,16.09
2023-03-31T16:15:52.826Z,16.03
2023-03-31T16:19:04.135Z,15.95
2023-03-31T16:22:06.636Z,15.82
2023-03-31T16:25:10.970Z,15.66
2023-03-31T16:28:33.303Z,15.59
2023-03-31T16:31:37.236Z,15.38
2023-03-31T16:34:59.103Z,15.13
2023-03-31T16:38:04.401Z,15.02
2023-03-31T16:41:07.338Z,14.90
2023-03-31T16:44:09.835Z,14.79
2023-03-31T16:47:27.666Z,14.71
2023-03-31T16:50:37.048Z,14.73
2023-03-31T16:53:39.082Z,14.76
2023-03-31T16:56:41.400Z,14.78
2023-03-31T16:59:46.800Z,14.77
2023-03-31T17:02:49.274Z,14.70
2023-03-31T17:05:53.033Z,14.68
2023-03-31T17:08:55.838Z,14.65
2023-03-31T17:11:58.156Z,14.56
2023-03-31T17:15:00.798Z,14.52
2023-03-31T17:18:03.544Z,14.30
2023-03-31T17:21:08.900Z,14.18
2023-03-31T17:24:12.331Z,14.03
2023-03-31T17:27:15.942Z,14.10
2023-03-31T17:30:18.195Z,14.03
2023-03-31T17:33:21.258Z,13.88
2023-03-31T17:36:23.331Z,13.94
2023-03-31T17:39:27.522Z,13.91
2023-03-31T17:42:30.268Z,13.87
2023-03-31T17:45:33.608Z,13.96
2023-03-31T17:48:36.812Z,13.83
2023-03-31T17:51:39.475Z,13.88
2023-03-31T17:54:42.697Z,13.75
2023-03-31T17:57:46.180Z,13.81
2023-03-31T18:00:48.215Z,13.78
2023-03-31T18:03:50.592Z,13.73
2023-03-31T18:06:52.798Z,13.77
2023-03-31T18:09:55.162Z,13.74
2023-03-31T18:12:59.329Z,13.75
2023-03-31T18:16:02.850Z,13.81
2023-03-31T18:19:05.011Z,13.78
2023-03-31T18:22:08.354Z,13.64
2023-03-31T18:25:10.626Z,13.54
2023-03-31T18:28:14.597Z,13.54
2023-03-31T18:31:16.800Z,13.48
2023-03-31T18:34:19.650Z,13.40
2023-03-31T18:37:22.348Z,13.35
2023-03-31T18:40:25.558Z,13.23
2023-03-31T18:43:27.769Z,13.15
2023-03-31T18:46:30.383Z,13.02
2023-03-31T18:49:32.641Z,13.04
2023-03-31T18:52:37.058Z,13.08
2023-03-31T18:55:39.266Z,13.17
2023-03-31T18:58:41.903Z,13.19
2023-03-31T19:01:44.030Z,13.23
2023-03-31T19:04:47.149Z,13.19
2023-03-31T19:07:49.188Z,13.09
2023-03-31T19:10:52.251Z,12.96
2023-03-31T19:13:55.943Z,13.04
2023-03-31T19:16:58.325Z,13.01
2023-03-31T19:20:00.722Z,13.01
2023-03-31T19:23:03.099Z,13.01
2023-03-31T19:26:07.895Z,13.03
2023-03-31T19:29:10.308Z,12.98
2023-03-31T19:32:12.523Z,12.94
2023-03-31T19:35:15.608Z,12.96
2023-03-31T19:38:19.131Z,12.92
2023-03-31T19:41:21.900Z,12.51
2023-03-31T19:44:24.050Z,12.49
2023-03-31T19:47:26.666Z,12.42
2023-03-31T19:50:28.697Z,12.37
2023-03-31T19:53:31.689Z,12.23
2023-03-31T19:56:34.027Z,12.09
2023-03-31T19:59:36.426Z,12.03
2023-03-31T20:02:38.738Z,11.94
2023-03-31T20:05:41.233Z,11.90
2023-03-31T20:08:43.896Z,11.72
2023-03-31T20:11:48.241Z,11.68
2023-03-31T20:14:50.416Z,11.46
2023-03-31T20:17:53.048Z,11.31
2023-03-31T20:21:04.564Z,11.26
2023-03-31T20:24:07.284Z,11.37
2023-03-31T20:27:09.769Z,11.31
2023-03-31T20:30:12.285Z,11.27
2023-03-31T20:33:14.378Z,11.19
2023-03-31T20:36:18.070Z,11.14
2023-03-31T20:39:20.596Z,11.04
2023-03-31T20:42:23.085Z,11.04
2023-03-31T20:45:25.227Z,11.10
2023-03-31T20:48:28.244Z,11.15
2023-03-31T20:51:33.475Z,11.14
2023-03-31T20:54:36.201Z,11.09
2023-03-31T20:57:38.397Z,10.93
2023-03-31T21:00:41.344Z,10.96
2023-03-31T21:03:44.148Z,11.05
2023-03-31T21:06:47.467Z,11.09
2023-03-31T21:09:49.626Z,10.97
2023-03-31T21:12:52.714Z,10.86
2023-03-31T21:15:55.828Z,10.78
2023-03-31T21:19:01.347Z,10.80
2023-03-31T21:22:03.453Z,10.89
2023-03-31T21:25:06.246Z,10.86
2023-03-31T21:28:08.297Z,10.80
2023-03-31T21:31:18.106Z,10.80
2023-03-31T21:34:20.152Z,10.70
2023-03-31T21:37:24.405Z,10.51
2023-03-31T21:40:26.477Z,10.51
2023-03-31T21:43:28.817Z,10.59
2023-03-31T21:46:33.100Z,10.63
2023-03-31T21:49:35.651Z,10.51
2023-03-31T21:52:37.774Z,10.57
2023-03-31T21:55:40.182Z,10.52
2023-03-31T21:58:42.322Z,10.37
2023-03-31T22:01:44.838Z,10.43
2023-03-31T22:04:47.288Z,10.39
2023-03-31T22:07:49.661Z,10.35
2023-03-31T22:10:52.273Z,10.44
2023-03-31T22:13:54.411Z,10.50
2023-03-31T22:16:57.000Z,10.48
2023-03-31T22:19:59.035Z,10.38
2023-03-31T22:23:01.682Z,10.43
2023-03-31T22:26:03.831Z,10.30
2023-03-31T22:29:06.247Z,10.15
2023-03-31T22:32:08.343Z,10.23
2023-03-31T22:35:11.194Z,10.24
2023-03-31T22:41:16.331Z,10.18
2023-03-31T22:44:18.704Z,10.05
2023-03-31T22:47:21.197Z,10.11
2023-03-31T22:50:23.838Z,10.04
2023-03-31T22:53:26.511Z,9.98
2023-03-31T22:56:28.683Z,10.03
2023-03-31T22:59:31.245Z,10.08
2023-03-31T23:02:33.290Z,9.99
2023-03-31T23:05:35.923Z,10.18
2023-03-31T23:08:38.282Z,10.20
2023-03-31T23:11:40.933Z,10.01
2023-03-31T23:14:43.011Z,10.01
2023-03-31T23:17:45.439Z,10.00
2023-03-31T23:20:47.644Z,9.87
2023-03-31T23:23:51.844Z,10.00
2023-03-31T23:26:54.177Z,9.93
2023-03-31T23:29:56.568Z,9.89
2023-03-31T23:32:58.612Z,9.84
2023-03-31T23:36:03.266Z,9.80
2023-03-31T23:39:06.800Z,9.77
2023-03-31T23:42:10.058Z,9.82
2023-03-31T23:45:12.200Z,9.49
2023-03-31T23:48:14.935Z,9.52
2023-03-31T23:51:17.002Z,9.60
2023-03-31T23:54:19.421Z,9.56
2023-03-31T23:57:21.557Z,9.28
